KDUC/DUC METAR and TAF weather

Enter ICAO airport designator
Station Type Date Time Source
KDUC METAR 2020/02/21 15:15 UTC NOAA

KDUC 211515Z AUTO 10004KT 10SM CLR M02/M08 A3073 RMK AO2 T10151080


Station Type Date Time Source
KDUC Decoded METAR 2020/02/21 15:15 UTC NOAA

Duncan, Halliburton Field Airport, OK, United States (KDUC) 34-28-15N 097-57-36W
Feb 21, 2020 - 10:15 AM EST / 2020.02.21 1515 UTC
Wind: from the E (100 degrees) at 5 MPH (4 KT):0
Visibility: 10 mile(s):0
Sky conditions: clear
Temperature: 29.3 F (-1.5 C)
Windchill: 24 F (-4 C):1
Dew Point: 17.6 F (-8.0 C)
Relative Humidity: 61%
Pressure (altimeter): 30.73 in. Hg (1040 hPa)
ob: KDUC 211515Z AUTO 10004KT 10SM CLR M02/M08 A3073 RMK AO2 T10151080
cycle: 15

Station Type Date Time Source
KDUC TAF UTC NOAA

Error!

Example: see airport list